Time;durP1;ratioP1;P1;durP2;ratioP2;P2;SDS_P1;SDS_P2;PMS_P1;PMS_P2;Temp;Humidity;BMP_temperature;BMP_pressure;BME280_temperature;BME280_humidity;BME280_pressure;Samples;Min_cycle;Max_cycle;Signal;HPM_P1;HPM_P2
2022/03/31 00:01:24;;;;;;;6.35;5.07;;;;;;;4.96;100.00;100040.88;5279839;28;20025;-77
2022/03/31 00:03:56;;;;;;;5.97;5.38;;;;;;;4.89;100.00;100044.06;5281344;28;20033;-77
2022/03/31 00:06:27;;;;;;;6.95;5.13;;;;;;;4.90;100.00;100036.94;5275788;28;20029;-77
2022/03/31 00:08:58;;;;;;;6.57;5.03;;;;;;;4.90;100.00;100043.06;5279852;28;20409;-78
2022/03/31 00:11:30;;;;;;;7.13;5.38;;;;;;;4.91;100.00;100044.75;5274788;28;20027;-77
2022/03/31 00:14:01;;;;;;;6.68;5.55;;;;;;;4.88;100.00;100045.00;5275971;28;21339;-77
2022/03/31 00:16:33;;;;;;;5.20;4.70;;;;;;;4.87;100.00;100053.06;5282002;28;20029;-77
2022/03/31 00:19:04;;;;;;;7.78;5.90;;;;;;;4.86;100.00;100054.03;5264625;28;21423;-78
2022/03/31 00:22:28;;;;;;;6.38;5.72;;;;;;;4.85;100.00;100055.81;5281709;28;20149;-77
2022/03/31 00:25:00;;;;;;;5.60;5.10;;;;;;;4.80;100.00;100059.81;5286073;28;20628;-78
2022/03/31 00:27:31;;;;;;;6.40;5.70;;;;;;;4.82;100.00;100049.94;5280594;28;20041;-77
2022/03/31 00:30:05;;;;;;;6.03;5.43;;;;;;;4.83;100.00;100054.28;5285867;28;20092;-77
2022/03/31 00:32:36;;;;;;;6.35;5.32;;;;;;;4.79;100.00;100043.13;5285842;28;20029;-77
2022/03/31 00:35:10;;;;;;;6.03;5.25;;;;;;;4.86;100.00;100048.75;5279234;28;20040;-77
2022/03/31 00:37:43;;;;;;;7.00;6.07;;;;;;;4.87;100.00;100047.75;5279659;28;20040;-77
2022/03/31 00:40:21;;;;;;;9.25;6.75;;;;;;;4.85;100.00;100050.53;5279396;28;20026;-78
2022/03/31 00:42:57;;;;;;;9.52;7.35;;;;;;;4.87;100.00;100045.13;5280646;28;20139;-77
2022/03/31 00:45:46;;;;;;;7.60;6.60;;;;;;;4.85;100.00;100033.84;5279270;28;20026;-77
2022/03/31 00:48:19;;;;;;;8.85;6.88;;;;;;;4.86;100.00;100043.47;5254655;28;20025;-78
2022/03/31 00:50:50;;;;;;;7.72;6.65;;;;;;;4.84;100.00;100051.50;5276819;28;21104;-78
2022/03/31 00:53:22;;;;;;;9.43;7.13;;;;;;;4.78;100.00;100033.50;5278896;28;20396;-78
2022/03/31 00:55:54;;;;;;;9.75;7.57;;;;;;;4.87;100.00;100042.47;5280393;28;20102;-77
2022/03/31 00:58:25;;;;;;;9.23;7.55;;;;;;;4.88;100.00;100046.81;5280321;28;20020;-77
2022/03/31 01:00:57;;;;;;;9.52;7.30;;;;;;;4.86;100.00;100046.94;5282032;28;20083;-78
2022/03/31 01:03:29;;;;;;;9.77;8.10;;;;;;;4.90;100.00;100043.06;5278608;28;20028;-78
2022/03/31 01:06:00;;;;;;;10.68;7.82;;;;;;;4.88;100.00;100042.34;5263398;28;20112;-77
2022/03/31 01:08:32;;;;;;;9.45;7.75;;;;;;;4.86;100.00;100033.72;5280201;28;20024;-78
2022/03/31 01:11:04;;;;;;;12.10;9.00;;;;;;;4.86;100.00;100032.91;5280706;28;20021;-77
2022/03/31 01:13:35;;;;;;;11.68;8.88;;;;;;;4.83;100.00;100019.94;5279027;28;20036;-78
2022/03/31 01:16:06;;;;;;;9.60;7.72;;;;;;;4.91;100.00;100026.25;5279083;28;20024;-78
2022/03/31 01:18:38;;;;;;;11.52;8.27;;;;;;;4.90;100.00;100023.75;5279652;28;20025;-78
2022/03/31 01:21:09;;;;;;;9.57;8.00;;;;;;;4.88;100.00;100025.69;5279337;28;20025;-78
2022/03/31 01:23:41;;;;;;;10.25;8.73;;;;;;;4.79;100.00;100010.59;5274969;28;20029;-77
2022/03/31 01:26:13;;;;;;;11.73;7.82;;;;;;;4.84;100.00;100014.50;5277396;28;20021;-77
2022/03/31 01:28:44;;;;;;;8.70;7.53;;;;;;;4.85;100.00;100020.63;5279826;28;20377;-77
2022/03/31 01:31:16;;;;;;;9.32;8.32;;;;;;;4.82;100.00;100019.09;5282483;28;20120;-78
2022/03/31 01:33:47;;;;;;;9.20;8.27;;;;;;;4.83;100.00;100018.13;5279840;28;20052;-77
2022/03/31 01:36:19;;;;;;;8.73;7.80;;;;;;;4.76;100.00;100008.19;5283415;28;20053;-77
2022/03/31 01:38:50;;;;;;;9.40;8.25;;;;;;;4.80;100.00;100014.88;5280979;28;20461;-77
2022/03/31 01:41:23;;;;;;;10.63;8.32;;;;;;;4.85;100.00;100010.06;5284202;28;20103;-78
2022/03/31 01:43:54;;;;;;;11.40;9.00;;;;;;;4.80;100.00;100013.06;5283574;28;20059;-77
2022/03/31 01:46:25;;;;;;;11.80;9.43;;;;;;;4.74;100.00;100006.50;5280363;28;20060;-77
2022/03/31 01:48:57;;;;;;;10.77;9.20;;;;;;;4.73;100.00;100002.19;5279318;28;20029;-77
2022/03/31 01:51:28;;;;;;;11.93;9.20;;;;;;;4.66;100.00;99998.38;5283420;28;20025;-77
2022/03/31 01:54:00;;;;;;;14.30;9.02;;;;;;;4.57;100.00;99988.53;5259836;28;20045;-77
2022/03/31 01:56:31;;;;;;;10.73;9.25;;;;;;;4.57;100.00;99996.47;5278557;28;20060;-77
2022/03/31 01:59:02;;;;;;;13.38;10.45;;;;;;;4.56;100.00;100002.72;5275318;28;20556;-77
2022/03/31 02:01:34;;;;;;;14.57;10.88;;;;;;;4.47;100.00;100001.66;5281907;28;20421;-77
2022/03/31 02:04:05;;;;;;;12.85;11.02;;;;;;;4.42;100.00;99997.69;5279545;28;20355;-77
2022/03/31 02:06:37;;;;;;;13.60;10.80;;;;;;;4.42;100.00;99995.91;5278648;28;20041;-77
2022/03/31 02:09:08;;;;;;;13.27;10.38;;;;;;;4.36;100.00;99996.38;5279202;28;20091;-77
2022/03/31 02:11:40;;;;;;;13.50;10.95;;;;;;;4.32;100.00;99977.31;5281169;28;20116;-77
2022/03/31 02:14:14;;;;;;;14.38;11.65;;;;;;;4.33;100.00;99981.66;5278051;28;20044;-77
2022/03/31 02:16:47;;;;;;;14.32;11.85;;;;;;;4.23;100.00;99983.34;5279209;28;20112;-77
2022/03/31 02:19:18;;;;;;;17.65;11.95;;;;;;;4.22;100.00;99978.19;5282494;28;20040;-77
2022/03/31 02:21:50;;;;;;;14.20;11.93;;;;;;;4.10;100.00;99962.38;5285936;28;20101;-77
2022/03/31 02:24:21;;;;;;;15.70;12.05;;;;;;;4.20;100.00;99977.47;5286013;28;20033;-77
2022/03/31 02:26:53;;;;;;;16.63;11.95;;;;;;;4.13;100.00;99969.19;5284474;28;20025;-78
2022/03/31 02:29:24;;;;;;;13.00;10.45;;;;;;;4.25;100.00;99978.78;5279784;28;20441;-77
2022/03/31 02:31:56;;;;;;;14.63;11.23;;;;;;;4.11;100.00;99982.50;5278499;28;20056;-77
2022/03/31 02:34:28;;;;;;;14.10;10.45;;;;;;;4.13;100.00;99982.38;5275146;28;20037;-77
2022/03/31 02:36:59;;;;;;;16.38;12.32;;;;;;;4.07;100.00;99985.53;5277803;28;20025;-77
2022/03/31 02:39:31;;;;;;;15.38;10.82;;;;;;;4.08;100.00;99988.03;5281714;28;20025;-77
2022/03/31 02:42:03;;;;;;;15.93;10.98;;;;;;;4.04;100.00;99983.97;5281363;28;20045;-77
2022/03/31 02:44:34;;;;;;;14.60;11.20;;;;;;;4.03;100.00;99979.63;5279928;28;20033;-78
2022/03/31 02:47:06;;;;;;;14.77;9.82;;;;;;;3.97;100.00;99978.31;5276005;28;20025;-77
2022/03/31 02:49:37;;;;;;;12.15;9.45;;;;;;;3.91;100.00;99977.97;5286122;28;20354;-77
2022/03/31 02:52:09;;;;;;;12.75;9.50;;;;;;;3.87;100.00;99968.63;5281571;28;20056;-77
2022/03/31 02:57:30;;;;;;;11.82;9.52;;;;;;;3.80;100.00;99970.88;5283605;28;20400;-77
2022/03/31 03:00:03;;;;;;;14.80;11.00;;;;;;;3.70;100.00;99965.50;5283360;28;20080;-76
2022/03/31 03:02:35;;;;;;;11.32;10.13;;;;;;;3.66;100.00;99960.59;5279200;28;20108;-77
2022/03/31 03:05:07;;;;;;;11.98;10.40;;;;;;;3.68;100.00;99966.56;5259182;28;20029;-76
2022/03/31 03:07:38;;;;;;;10.68;9.43;;;;;;;3.70;100.00;99965.50;5275879;28;20041;-75
2022/03/31 03:10:10;;;;;;;10.80;9.70;;;;;;;3.64;100.00;99963.34;5283017;28;20025;-75
2022/03/31 03:12:41;;;;;;;10.00;7.90;;;;;;;3.56;100.00;99966.59;5278522;28;20111;-76
2022/03/31 03:15:13;;;;;;;8.70;7.80;;;;;;;3.57;100.00;99949.78;5277542;28;20389;-76
2022/03/31 03:17:46;;;;;;;6.85;6.25;;;;;;;3.44;100.00;99956.97;5265101;28;20543;-75
2022/03/31 03:20:17;;;;;;;7.05;6.07;;;;;;;3.32;100.00;99942.13;5280993;28;20494;-74
2022/03/31 03:22:50;;;;;;;7.97;6.30;;;;;;;3.28;100.00;99954.69;5279855;28;20100;-75
2022/03/31 03:25:22;;;;;;;6.25;5.65;;;;;;;3.26;100.00;99959.25;5280833;28;20500;-75
2022/03/31 03:27:54;;;;;;;6.25;5.65;;;;;;;3.26;100.00;99967.16;5263984;28;20033;-75
2022/03/31 03:30:25;;;;;;;6.40;5.50;;;;;;;3.19;100.00;99958.00;5283849;28;20029;-75
2022/03/31 03:32:57;;;;;;;6.38;5.55;;;;;;;3.01;100.00;99953.16;5282851;28;20100;-75
2022/03/31 03:35:28;;;;;;;5.63;5.03;;;;;;;3.03;100.00;99959.19;5281841;28;20041;-75
2022/03/31 03:37:59;;;;;;;4.88;4.45;;;;;;;2.98;100.00;99961.31;5281839;28;20090;-75
2022/03/31 03:40:31;;;;;;;4.70;4.30;;;;;;;2.93;100.00;99952.94;5283501;28;20130;-76
2022/03/31 03:43:03;;;;;;;4.65;4.22;;;;;;;2.93;100.00;99960.81;5260614;28;20145;-76
2022/03/31 03:45:34;;;;;;;4.60;4.20;;;;;;;2.90;100.00;99957.59;5283928;28;20493;-75
2022/03/31 03:48:07;;;;;;;3.92;3.55;;;;;;;2.95;100.00;99963.34;5283428;28;20104;-77
2022/03/31 03:50:39;;;;;;;3.97;3.30;;;;;;;2.76;100.00;99964.72;5283170;28;20083;-75
2022/03/31 03:53:10;;;;;;;3.80;3.50;;;;;;;2.72;100.00;99962.41;5281452;28;20047;-76
2022/03/31 03:55:41;;;;;;;4.00;3.70;;;;;;;2.59;100.00;99965.13;5280609;28;20436;-75
2022/03/31 03:58:13;;;;;;;4.10;3.65;;;;;;;2.53;100.00;99968.22;5261573;28;20037;-77
2022/03/31 04:00:45;;;;;;;4.10;3.70;;;;;;;2.46;100.00;99967.81;5281606;28;20025;-75
2022/03/31 04:03:17;;;;;;;4.43;3.72;;;;;;;2.38;100.00;99968.34;5280814;28;20029;-75
2022/03/31 04:05:50;;;;;;;3.90;3.60;;;;;;;2.38;100.00;99967.50;5282399;28;20048;-75
2022/03/31 04:08:21;;;;;;;5.78;4.10;;;;;;;2.29;100.00;99962.94;5279603;28;20029;-76
2022/03/31 04:10:52;;;;;;;5.25;4.43;;;;;;;2.33;100.00;99969.63;5262139;28;20014;-76
2022/03/31 04:13:24;;;;;;;4.55;4.15;;;;;;;2.25;100.00;99964.94;5277674;28;20470;-76
2022/03/31 04:15:55;;;;;;;4.60;4.20;;;;;;;2.13;100.00;99963.19;5279125;28;20037;-76
2022/03/31 04:18:26;;;;;;;4.32;3.92;;;;;;;2.15;100.00;99967.38;5281707;28;20190;-76
2022/03/31 04:21:01;;;;;;;4.45;4.03;;;;;;;2.07;100.00;99965.31;5279028;28;20029;-76
2022/03/31 04:23:32;;;;;;;4.80;4.40;;;;;;;1.94;100.00;99974.19;5280713;28;20018;-76
2022/03/31 04:26:03;;;;;;;4.55;3.92;;;;;;;1.79;100.00;99963.78;5282263;28;20029;-75
2022/03/31 04:28:34;;;;;;;4.80;4.20;;;;;;;1.74;100.00;99963.28;5281652;28;20021;-76
2022/03/31 04:31:06;;;;;;;4.15;3.85;;;;;;;1.74;100.00;99970.34;5279210;28;20025;-76
2022/03/31 04:33:37;;;;;;;4.07;3.63;;;;;;;1.77;100.00;99975.34;5264012;28;20503;-76
2022/03/31 04:36:08;;;;;;;4.15;3.75;;;;;;;1.62;100.00;99972.84;5282910;28;20431;-76
2022/03/31 04:38:40;;;;;;;4.32;3.92;;;;;;;1.60;100.00;99976.53;5282389;28;20060;-76
2022/03/31 04:41:12;;;;;;;4.07;3.78;;;;;;;1.53;100.00;99976.13;5281581;28;20082;-76
2022/03/31 04:43:44;;;;;;;4.22;3.83;;;;;;;1.60;100.00;99982.63;5281622;28;20101;-76
2022/03/31 04:46:15;;;;;;;4.38;3.03;;;;;;;1.51;100.00;99970.97;5280373;28;20108;-77
2022/03/31 04:48:46;;;;;;;4.43;4.03;;;;;;;1.53;100.00;99976.13;5282614;28;20453;-78
2022/03/31 04:51:17;;;;;;;3.80;3.50;;;;;;;1.54;100.00;99983.03;5276591;28;20486;-77
2022/03/31 04:53:49;;;;;;;4.05;3.15;;;;;;;1.53;100.00;99978.75;5279030;28;20028;-77
2022/03/31 04:56:20;;;;;;;3.88;3.50;;;;;;;1.60;100.00;99979.16;5281904;28;20449;-77
2022/03/31 04:58:51;;;;;;;4.30;3.45;;;;;;;1.63;100.00;99982.44;5281067;28;20124;-77
2022/03/31 05:01:23;;;;;;;3.72;3.42;;;;;;;1.56;100.00;99980.31;5264214;28;20017;-76
2022/03/31 05:03:54;;;;;;;3.55;3.25;;;;;;;1.49;100.00;99988.63;5279578;28;20033;-76
2022/03/31 05:06:25;;;;;;;3.50;3.13;;;;;;;1.54;100.00;99983.03;5258439;28;20029;-77
2022/03/31 05:08:57;;;;;;;3.92;3.30;;;;;;;1.40;100.00;99970.00;5281083;28;20619;-77
2022/03/31 05:11:28;;;;;;;3.85;3.55;;;;;;;1.42;100.00;99984.75;5281481;28;21477;-77
2022/03/31 05:13:59;;;;;;;3.90;3.60;;;;;;;1.38;100.00;99980.63;5280829;28;20417;-76
2022/03/31 05:16:31;;;;;;;4.53;3.55;;;;;;;1.35;100.00;99982.63;5278041;28;20029;-77
2022/03/31 05:19:02;;;;;;;3.80;3.33;;;;;;;1.21;100.00;99975.66;5276781;28;20113;-77
2022/03/31 05:21:33;;;;;;;3.58;3.28;;;;;;;1.26;100.00;99981.47;5282284;28;20033;-77
2022/03/31 05:24:05;;;;;;;4.05;3.65;;;;;;;1.17;100.00;99984.72;5279648;28;20068;-77
2022/03/31 05:26:36;;;;;;;3.70;3.38;;;;;;;1.15;100.00;99986.59;5282208;28;20162;-77
2022/03/31 05:29:08;;;;;;;3.38;2.67;;;;;;;1.11;100.00;99993.84;5278468;28;20021;-77
2022/03/31 05:31:40;;;;;;;3.05;2.80;;;;;;;0.98;100.00;99988.56;5275131;28;20035;-78
2022/03/31 05:34:11;;;;;;;4.18;2.80;;;;;;;0.89;100.00;99976.88;5280524;28;20044;-77
2022/03/31 05:36:42;;;;;;;3.65;3.10;;;;;;;0.87;100.00;99978.78;5279817;28;20021;-77
2022/03/31 05:39:14;;;;;;;3.75;2.83;;;;;;;0.85;100.00;99983.28;5264316;28;20374;-78
2022/03/31 05:41:45;;;;;;;3.05;2.85;;;;;;;0.80;100.00;99993.25;5281576;28;20041;-79
2022/03/31 05:44:17;;;;;;;3.80;2.92;;;;;;;0.77;100.00;99990.81;5261023;28;20036;-79
2022/03/31 05:46:48;;;;;;;3.30;3.00;;;;;;;0.72;100.00;100000.81;5260639;28;20425;-78
2022/03/31 05:49:19;;;;;;;3.38;3.08;;;;;;;0.71;100.00;99999.09;5280986;28;20065;-75
2022/03/31 05:51:50;;;;;;;3.08;2.80;;;;;;;0.62;100.00;99995.28;5280516;28;20075;-76
2022/03/31 05:54:22;;;;;;;3.30;3.00;;;;;;;0.58;100.00;99999.06;5279323;28;20086;-77
2022/03/31 05:56:53;;;;;;;3.55;3.22;;;;;;;0.48;100.00;99990.09;5275771;28;20025;-76
2022/03/31 05:59:25;;;;;;;2.67;2.47;;;;;;;0.46;100.00;99992.00;5258543;28;20048;-76
2022/03/31 06:01:56;;;;;;;3.40;2.95;;;;;;;0.45;100.00;99985.88;5278901;28;20372;-75
2022/03/31 06:04:28;;;;;;;4.55;3.65;;;;;;;0.48;100.00;99977.81;5260925;28;20033;-75
2022/03/31 06:06:59;;;;;;;3.83;3.42;;;;;;;0.44;100.00;99985.97;5280340;28;20025;-75
2022/03/31 06:09:31;;;;;;;3.28;2.97;;;;;;;0.44;100.00;99984.22;5281608;28;20060;-75
2022/03/31 06:17:35;;;;;;;4.28;3.40;;;;;;;0.94;100.00;99989.72;5340498;27;20363;-75
2022/03/31 06:23:03;;;;;;;3.50;3.20;;;;;;;0.66;100.00;99986.28;5363090;27;1196781;-75
2022/03/31 06:25:34;;;;;;;4.57;4.13;;;;;;;0.79;100.00;99988.97;5396846;27;20046;-74
2022/03/31 06:28:06;;;;;;;4.47;3.78;;;;;;;0.68;100.00;99987.00;5401271;27;20126;-75
2022/03/31 06:30:38;;;;;;;4.13;3.67;;;;;;;0.65;100.00;100002.13;5401580;27;20019;-75
2022/03/31 06:33:09;;;;;;;4.28;3.58;;;;;;;0.69;100.00;99996.56;5402006;27;20052;-76
2022/03/31 06:35:40;;;;;;;4.28;3.88;;;;;;;0.67;100.00;99997.63;5406562;27;20027;-76
2022/03/31 06:38:12;;;;;;;4.53;3.92;;;;;;;0.68;100.00;99996.66;5406113;27;20038;-75
2022/03/31 06:41:06;;;;;;;5.05;3.70;;;;;;;0.71;100.00;99994.69;5386221;27;20037;-76
2022/03/31 06:43:39;;;;;;;4.15;3.83;;;;;;;0.69;100.00;100001.81;5403550;27;20037;-76
2022/03/31 06:46:12;;;;;;;5.10;4.37;;;;;;;0.74;100.00;100001.53;5385639;27;20035;-75
2022/03/31 06:48:48;;;;;;;5.13;4.72;;;;;;;0.71;100.00;99997.31;5403226;27;20714;-75
2022/03/31 06:51:19;;;;;;;5.13;4.63;;;;;;;0.84;100.00;100002.63;5405086;27;20053;-79
2022/03/31 06:53:51;;;;;;;5.57;5.07;;;;;;;0.83;100.00;100007.97;5401276;27;20030;-78
2022/03/31 06:56:23;;;;;;;5.38;4.88;;;;;;;0.86;100.00;100007.75;5407108;27;20014;-76
2022/03/31 06:58:54;;;;;;;5.28;4.80;;;;;;;0.80;100.00;100006.38;5387882;27;20106;-77
2022/03/31 07:01:25;;;;;;;5.75;5.15;;;;;;;0.84;100.00;100004.38;5406712;27;20054;-76
2022/03/31 07:03:57;;;;;;;5.85;5.35;;;;;;;0.96;100.00;99998.31;5405217;27;20025;-77
2022/03/31 07:06:28;;;;;;;5.78;4.95;;;;;;;0.92;100.00;100000.31;5391665;27;20401;-77
2022/03/31 07:08:59;;;;;;;6.00;5.50;;;;;;;1.02;100.00;100000.56;5403316;27;20467;-76
2022/03/31 07:11:31;;;;;;;5.80;5.30;;;;;;;1.05;100.00;99997.75;5407631;27;20017;-76
2022/03/31 07:14:02;;;;;;;6.00;5.50;;;;;;;1.12;100.00;100000.78;5387668;27;20405;-76
2022/03/31 07:16:33;;;;;;;5.45;4.95;;;;;;;1.10;100.00;99997.41;5407592;27;20331;-76
2022/03/31 07:19:05;;;;;;;6.05;5.45;;;;;;;1.12;100.00;100001.63;5388294;27;20374;-76
2022/03/31 07:21:36;;;;;;;5.55;5.07;;;;;;;1.16;100.00;99999.66;5407516;27;20042;-76
2022/03/31 07:24:07;;;;;;;6.50;5.90;;;;;;;1.22;100.00;99998.38;5403809;27;20030;-77
2022/03/31 07:26:39;;;;;;;5.85;5.25;;;;;;;1.34;100.00;99994.94;5391415;27;20026;-77
2022/03/31 07:29:11;;;;;;;6.45;5.85;;;;;;;1.28;100.00;99987.44;5404273;27;20033;-76
2022/03/31 07:31:42;;;;;;;6.00;5.40;;;;;;;1.35;100.00;99991.38;5395687;27;20029;-77
2022/03/31 07:34:13;;;;;;;5.97;5.38;;;;;;;1.30;100.00;99996.91;5393456;27;20105;-77
2022/03/31 07:36:45;;;;;;;5.63;5.13;;;;;;;1.34;100.00;100001.97;5392091;27;20038;-78
2022/03/31 07:39:16;;;;;;;6.00;5.50;;;;;;;1.43;100.00;100004.81;5385852;27;30199;-76
2022/03/31 07:41:47;;;;;;;5.90;5.40;;;;;;;1.49;100.00;99996.53;5391968;27;20041;-76
2022/03/31 07:44:18;;;;;;;6.35;5.82;;;;;;;1.53;100.00;99997.16;5391360;27;20007;-76
2022/03/31 07:46:51;;;;;;;5.85;5.35;;;;;;;1.49;100.00;99993.88;5392358;27;20434;-77
2022/03/31 07:49:22;;;;;;;6.20;5.68;;;;;;;1.58;100.00;99997.69;5385798;27;20049;-77
2022/03/31 07:51:54;;;;;;;5.53;5.03;;;;;;;1.61;100.00;99999.25;5370158;27;20619;-77
2022/03/31 07:54:25;;;;;;;4.97;4.57;;;;;;;1.61;100.00;99992.19;5370311;27;20019;-78
2022/03/31 07:56:56;;;;;;;5.07;4.68;;;;;;;1.67;100.00;99999.66;5380143;27;20035;-77
2022/03/31 07:59:33;;;;;;;4.30;4.00;;;;;;;1.76;100.00;99995.56;5371748;27;20347;-77
2022/03/31 08:02:04;;;;;;;;;;;;;;;1.76;100.00;99995.56;5388261;27;20085;-77
2022/03/31 08:04:36;;;;;;;4.55;4.18;;;;;;;1.62;100.00;99993.03;5370507;27;20375;-77
2022/03/31 08:07:07;;;;;;;4.53;4.18;;;;;;;1.62;100.00;99993.03;5362877;27;20066;-77
2022/03/31 08:09:38;;;;;;;4.60;4.20;;;;;;;1.67;100.00;99994.41;5392151;27;20113;-77
2022/03/31 08:12:10;;;;;;;5.05;4.38;;;;;;;1.69;100.00;99991.69;5390539;27;34098;-77
2022/03/31 08:14:41;;;;;;;4.22;3.83;;;;;;;1.79;100.00;99982.19;5379152;27;20606;-77
2022/03/31 08:17:13;;;;;;;6.35;4.18;;;;;;;1.91;100.00;99980.47;5370288;27;20102;-77
2022/03/31 08:19:44;;;;;;;4.57;4.05;;;;;;;1.95;100.00;99974.06;5369559;27;20043;-76
2022/03/31 08:22:17;;;;;;;4.50;4.10;;;;;;;2.02;100.00;99983.22;5384130;27;20038;-77
2022/03/31 08:24:48;;;;;;;4.10;3.80;;;;;;;2.17;100.00;99983.91;5391631;27;20030;-77
2022/03/31 08:27:20;;;;;;;4.80;4.40;;;;;;;2.26;100.00;99987.66;5390985;27;20027;-77
2022/03/31 08:29:52;;;;;;;4.20;3.90;;;;;;;2.25;100.00;99975.47;5371102;27;20102;-77
2022/03/31 08:32:24;;;;;;;4.43;4.03;;;;;;;2.35;100.00;99986.16;5370029;27;20015;-76
2022/03/31 08:34:55;;;;;;;4.40;3.95;;;;;;;2.48;100.00;99989.59;5377379;27;28569;-77
2022/03/31 08:37:26;;;;;;;4.60;4.20;;;;;;;2.45;100.00;99995.94;5391420;27;20034;-77
2022/03/31 08:39:58;;;;;;;5.03;4.10;;;;;;;2.54;100.00;99990.94;5391693;27;20027;-77
2022/03/31 08:42:30;;;;;;;4.43;4.10;;;;;;;2.54;100.00;99991.78;5386543;27;20030;-77
2022/03/31 08:45:02;;;;;;;4.95;4.32;;;;;;;2.59;100.00;99989.63;5389732;27;20015;-77
2022/03/31 08:47:34;;;;;;;3.83;3.50;;;;;;;2.62;100.00;99978.06;5372445;27;20098;-76
2022/03/31 08:50:05;;;;;;;4.10;3.80;;;;;;;2.69;100.00;100002.16;5390568;27;20103;-76
2022/03/31 08:52:37;;;;;;;3.85;3.55;;;;;;;2.75;100.00;99991.16;5375298;27;20388;-76
2022/03/31 08:55:09;;;;;;;7.07;3.90;;;;;;;2.89;100.00;99998.88;5380483;27;20023;-77
2022/03/31 08:57:48;;;;;;;4.15;3.85;;;;;;;2.94;100.00;99994.09;5390132;27;20482;-77
2022/03/31 09:00:21;;;;;;;4.22;3.92;;;;;;;3.02;100.00;100001.44;5389850;27;20026;-77
2022/03/31 09:02:55;;;;;;;4.10;3.80;;;;;;;3.20;100.00;100000.06;5389550;27;20513;-77
2022/03/31 09:05:34;;;;;;;3.85;3.55;;;;;;;3.38;100.00;100000.47;5350009;27;20019;-77
2022/03/31 09:08:09;;;;;;;4.47;3.50;;;;;;;3.43;100.00;100000.13;5382424;27;20075;-77
2022/03/31 09:10:49;;;;;;;3.95;3.63;;;;;;;3.56;100.00;100002.66;5371693;27;20122;-76
2022/03/31 09:13:25;;;;;;;3.83;3.53;;;;;;;3.69;100.00;100000.75;5389746;27;20086;-77
2022/03/31 09:16:02;;;;;;;3.92;3.53;;;;;;;3.65;100.00;99994.03;5390146;27;20075;-77
2022/03/31 09:18:34;;;;;;;3.63;3.33;;;;;;;3.76;100.00;99994.03;5389987;27;20071;-77
2022/03/31 09:21:09;;;;;;;5.35;3.25;;;;;;;3.89;100.00;100001.00;5389987;27;20602;-77
2022/03/31 09:23:41;;;;;;;3.53;3.20;;;;;;;3.69;100.00;100000.75;5371140;27;20019;-77
2022/03/31 09:26:14;;;;;;;3.38;3.08;;;;;;;3.66;100.00;99997.50;5369151;27;20073;-77
2022/03/31 09:28:47;;;;;;;3.63;3.33;;;;;;;3.76;100.00;100003.75;5381367;27;20023;-77
2022/03/31 09:31:22;;;;;;;3.55;3.20;;;;;;;3.64;100.00;99992.34;5372465;27;20051;-77
2022/03/31 09:33:56;;;;;;;3.85;3.53;;;;;;;3.70;100.00;100002.44;5367523;27;20027;-77
2022/03/31 09:36:27;;;;;;;3.97;3.55;;;;;;;3.59;100.00;100000.63;5388490;27;20378;-77
2022/03/31 09:39:02;;;;;;;4.05;3.65;;;;;;;3.52;100.00;100001.19;5388268;27;20107;-78
2022/03/31 09:41:35;;;;;;;4.07;3.67;;;;;;;3.48;100.00;99997.97;5390259;27;20551;-77
2022/03/31 09:44:19;;;;;;;4.35;3.78;;;;;;;3.50;100.00;99997.84;5370156;27;20031;-77
2022/03/31 09:46:52;;;;;;;3.97;3.58;;;;;;;3.44;100.00;99985.97;5390199;27;20058;-78
2022/03/31 09:49:27;;;;;;;4.00;3.60;;;;;;;3.59;100.00;99991.88;5387880;27;20066;-77
2022/03/31 09:52:07;;;;;;;4.05;3.70;;;;;;;3.66;100.00;99997.50;5374860;27;20025;-77
2022/03/31 09:54:38;;;;;;;3.95;3.55;;;;;;;3.62;100.00;99998.72;5388807;27;20459;-77
2022/03/31 09:57:10;;;;;;;4.10;3.70;;;;;;;3.68;100.00;99999.09;5375754;27;20141;-77
2022/03/31 09:59:44;;;;;;;4.28;3.88;;;;;;;3.66;100.00;99997.50;5380573;27;20030;-77
2022/03/31 10:02:16;;;;;;;4.75;3.13;;;;;;;3.73;100.00;100001.34;5384636;27;20092;-77
2022/03/31 10:04:47;;;;;;;3.63;3.33;;;;;;;3.76;100.00;99993.22;5368147;27;20158;-77
2022/03/31 10:07:18;;;;;;;4.38;3.40;;;;;;;3.88;100.00;99989.59;5368262;27;20052;-77
2022/03/31 10:09:50;;;;;;;3.83;3.50;;;;;;;3.81;100.00;99977.03;5349106;27;20363;-77
2022/03/31 10:12:37;;;;;;;3.45;3.15;;;;;;;3.97;100.00;99988.03;5386806;27;20046;-77
2022/03/31 10:15:14;;;;;;;3.97;3.25;;;;;;;4.20;100.00;99982.75;5388648;27;20209;-76
2022/03/31 10:17:48;;;;;;;3.42;3.13;;;;;;;4.33;100.00;99988.72;5389194;27;20134;-76
2022/03/31 10:20:21;;;;;;;3.72;3.33;;;;;;;4.51;100.00;99983.75;5389798;27;20072;-77
2022/03/31 10:25:48;;;;;;;3.22;2.92;;;;;;;4.64;100.00;99995.00;5388545;27;20035;-76
2022/03/31 10:28:22;;;;;;;3.30;2.75;;;;;;;4.62;100.00;99980.25;5388860;27;20019;-77
2022/03/31 10:30:58;;;;;;;2.80;2.60;;;;;;;4.64;100.00;99986.25;5388874;27;20094;-77
2022/03/31 10:33:42;;;;;;;3.20;3.00;;;;;;;4.70;100.00;99991.03;5389570;27;20054;-76
2022/03/31 10:36:16;;;;;;;3.20;2.90;;;;;;;4.62;100.00;99990.81;5388328;27;20034;-76
2022/03/31 10:38:54;;;;;;;3.22;2.92;;;;;;;4.66;100.00;99984.31;5388424;27;20022;-76
2022/03/31 10:41:35;;;;;;;3.25;2.90;;;;;;;4.72;100.00;99987.28;5389375;27;20068;-76
2022/03/31 10:44:12;;;;;;;2.85;2.55;;;;;;;4.85;100.00;99978.34;5387973;27;20023;-76
2022/03/31 10:46:46;;;;;;;3.75;2.83;;;;;;;4.95;100.00;99979.28;5387672;27;20031;-76
2022/03/31 10:49:20;;;;;;;3.28;2.88;;;;;;;5.09;100.00;99975.47;5389152;27;20129;-76
2022/03/31 10:51:53;;;;;;;2.88;2.47;;;;;;;5.21;100.00;99981.56;5369976;27;20419;-76
2022/03/31 10:54:31;;;;;;;2.90;2.65;;;;;;;5.45;100.00;99966.25;5384742;27;20027;-76
2022/03/31 10:57:15;;;;;;;2.80;2.60;;;;;;;5.55;100.00;99973.41;5383618;27;20109;-76
2022/03/31 10:59:48;;;;;;;3.72;2.78;;;;;;;5.37;100.00;99968.72;5386347;27;20062;-76
2022/03/31 11:02:22;;;;;;;3.03;2.72;;;;;;;5.21;100.00;99974.47;5380547;27;20035;-76
2022/03/31 11:04:58;;;;;;;3.08;2.88;;;;;;;5.08;100.00;99969.38;5351348;27;20050;-77
2022/03/31 11:07:29;;;;;;;3.25;2.95;;;;;;;4.89;100.00;99971.84;5388733;27;20019;-77
2022/03/31 11:10:06;;;;;;;3.55;3.25;;;;;;;4.74;100.00;99969.50;5393240;27;20072;-76
2022/03/31 11:12:39;;;;;;;3.75;3.10;;;;;;;4.70;100.00;99973.38;5389782;27;20034;-77
2022/03/31 11:15:17;;;;;;;3.83;3.10;;;;;;;4.77;100.00;99973.72;5392300;27;20018;-76
2022/03/31 11:17:48;;;;;;;3.17;2.88;;;;;;;4.95;100.00;99973.16;5392003;27;20033;-76
2022/03/31 11:20:22;;;;;;;4.10;3.80;;;;;;;4.99;100.00;99977.22;5392193;27;20054;-77
2022/03/31 11:22:59;;;;;;;3.60;3.30;;;;;;;5.10;100.00;99966.56;5391134;27;20150;-77
2022/03/31 11:25:31;;;;;;;3.78;3.22;;;;;;;5.24;100.00;99960.97;5386229;27;20041;-77
2022/03/31 11:28:11;;;;;;;3.08;2.88;;;;;;;5.42;100.00;99955.09;5391566;27;20019;-77
2022/03/31 11:30:46;;;;;;;3.15;2.88;;;;;;;5.43;100.00;99938.25;5390850;27;20023;-77
2022/03/31 11:33:17;;;;;;;3.17;2.97;;;;;;;5.72;100.00;99941.03;5390948;27;20023;-77
2022/03/31 11:35:53;;;;;;;2.85;2.53;;;;;;;6.03;100.00;99948.97;5391882;27;20019;-77
2022/03/31 11:38:24;;;;;;;3.30;3.03;;;;;;;5.85;100.00;99949.56;5392072;27;20059;-76
2022/03/31 11:40:55;;;;;;;3.20;2.90;;;;;;;5.83;100.00;99950.69;5390849;27;20114;-76
2022/03/31 11:43:27;;;;;;;2.97;2.67;;;;;;;5.59;100.00;99940.41;5385585;27;20025;-75
2022/03/31 11:45:59;;;;;;;3.15;2.90;;;;;;;5.52;100.00;99939.25;5387969;27;20019;-78
2022/03/31 11:48:40;;;;;;;3.05;2.75;;;;;;;5.46;100.00;99938.81;5391667;27;20049;-76
2022/03/31 11:51:13;;;;;;;3.92;2.90;;;;;;;5.41;100.00;99935.72;5391642;27;20033;-76
2022/03/31 11:53:47;;;;;;;3.00;2.80;;;;;;;5.42;100.00;99941.88;5391558;27;20023;-76
2022/03/31 11:56:22;;;;;;;4.60;3.08;;;;;;;5.43;100.00;99940.88;5371931;27;20110;-77
2022/03/31 11:58:57;;;;;;;3.10;2.90;;;;;;;5.47;100.00;99943.16;5390187;27;20023;-76
2022/03/31 12:01:43;;;;;;;3.53;3.28;;;;;;;5.62;100.00;99946.28;5373604;27;20483;-77
2022/03/31 12:04:22;;;;;;;2.95;2.75;;;;;;;5.76;100.00;99939.78;5351305;27;20357;-76
2022/03/31 12:06:55;;;;;;;3.15;2.85;;;;;;;5.85;100.00;99941.63;5373674;27;21415;-76
2022/03/31 12:09:27;;;;;;;3.42;3.13;;;;;;;6.04;100.00;99938.22;5380296;27;20426;-76